Terminal Aerodrome Forecast
Issued by NWS Lake Charles, LA

Home | Current Version | Previous Version | Text Only | Print | Product List | Glossary On
Versions: 1 2 3 4 5 6 7 8 9 10 11 12 13 14 15 16 17 18 19 20
000
FTUS44 KLCH 191741
TAFARA
TAF
KARA 191741Z 1918/2018 19009KT P6SM VCSH SCT040
     FM200200 VRB03KT P6SM BKN250
     FM201100 00000KT 4SM BR SCT250
     FM201400 18005KT P6SM SCT025=

USA.gov is the U.S. government's official web portal to all federal, state and local government web resources and services.